sensor_id;sensor_type;location;lat;lon;timestamp;P1;durP1;ratioP1;P2;durP2;ratioP2
4971;SDS011;2501;51.214;6.768;2023-12-22T00:02:03;0.60;;;0.40;;
4971;SDS011;2501;51.214;6.768;2023-12-22T00:04:34;0.60;;;0.40;;
4971;SDS011;2501;51.214;6.768;2023-12-22T00:07:03;0.60;;;0.50;;
4971;SDS011;2501;51.214;6.768;2023-12-22T00:09:31;0.60;;;0.60;;
4971;SDS011;2501;51.214;6.768;2023-12-22T00:12:00;0.60;;;0.40;;
4971;SDS011;2501;51.214;6.768;2023-12-22T00:14:31;0.60;;;0.40;;
4971;SDS011;2501;51.214;6.768;2023-12-22T00:16:59;0.60;;;0.40;;
4971;SDS011;2501;51.214;6.768;2023-12-22T00:19:28;0.60;;;0.40;;
4971;SDS011;2501;51.214;6.768;2023-12-22T00:21:59;0.60;;;0.40;;
4971;SDS011;2501;51.214;6.768;2023-12-22T00:24:28;0.60;;;0.40;;
4971;SDS011;2501;51.214;6.768;2023-12-22T00:26:54;0.60;;;0.40;;
4971;SDS011;2501;51.214;6.768;2023-12-22T00:29:22;0.60;;;0.40;;
4971;SDS011;2501;51.214;6.768;2023-12-22T00:31:53;0.60;;;0.40;;
4971;SDS011;2501;51.214;6.768;2023-12-22T00:34:22;0.60;;;0.40;;
4971;SDS011;2501;51.214;6.768;2023-12-22T00:36:50;0.60;;;0.40;;
4971;SDS011;2501;51.214;6.768;2023-12-22T00:39:21;3.30;;;0.80;;
4971;SDS011;2501;51.214;6.768;2023-12-22T00:41:50;0.60;;;0.40;;
4971;SDS011;2501;51.214;6.768;2023-12-22T00:44:18;13.20;;;0.80;;
4971;SDS011;2501;51.214;6.768;2023-12-22T00:46:46;0.60;;;0.40;;
4971;SDS011;2501;51.214;6.768;2023-12-22T00:49:15;0.60;;;0.40;;
4971;SDS011;2501;51.214;6.768;2023-12-22T00:51:43;0.60;;;0.40;;
4971;SDS011;2501;51.214;6.768;2023-12-22T00:54:11;0.60;;;0.40;;
4971;SDS011;2501;51.214;6.768;2023-12-22T00:56:42;0.60;;;0.40;;
4971;SDS011;2501;51.214;6.768;2023-12-22T00:59:11;0.60;;;0.40;;
4971;SDS011;2501;51.214;6.768;2023-12-22T01:01:39;0.68;;;0.57;;
4971;SDS011;2501;51.214;6.768;2023-12-22T01:04:08;0.60;;;0.40;;
4971;SDS011;2501;51.214;6.768;2023-12-22T01:06:37;0.60;;;0.40;;
4971;SDS011;2501;51.214;6.768;2023-12-22T01:09:06;0.60;;;0.40;;
4971;SDS011;2501;51.214;6.768;2023-12-22T01:11:34;0.60;;;0.60;;
4971;SDS011;2501;51.214;6.768;2023-12-22T01:14:05;0.60;;;0.40;;
4971;SDS011;2501;51.214;6.768;2023-12-22T01:16:34;0.60;;;0.40;;
4971;SDS011;2501;51.214;6.768;2023-12-22T01:19:03;0.60;;;0.40;;
4971;SDS011;2501;51.214;6.768;2023-12-22T01:21:31;0.60;;;0.50;;
4971;SDS011;2501;51.214;6.768;2023-12-22T01:24:00;0.60;;;0.40;;
4971;SDS011;2501;51.214;6.768;2023-12-22T01:26:28;0.60;;;0.40;;
4971;SDS011;2501;51.214;6.768;2023-12-22T01:29:00;0.60;;;0.40;;
4971;SDS011;2501;51.214;6.768;2023-12-22T01:31:31;0.60;;;0.50;;
4971;SDS011;2501;51.214;6.768;2023-12-22T01:33:59;0.93;;;0.85;;
4971;SDS011;2501;51.214;6.768;2023-12-22T01:36:28;0.60;;;0.40;;
4971;SDS011;2501;51.214;6.768;2023-12-22T01:38:56;0.60;;;0.40;;
4971;SDS011;2501;51.214;6.768;2023-12-22T01:41:24;0.60;;;0.40;;
4971;SDS011;2501;51.214;6.768;2023-12-22T01:43:53;0.60;;;0.40;;
4971;SDS011;2501;51.214;6.768;2023-12-22T01:46:21;0.60;;;0.40;;
4971;SDS011;2501;51.214;6.768;2023-12-22T01:48:52;0.60;;;0.40;;
4971;SDS011;2501;51.214;6.768;2023-12-22T01:51:21;0.60;;;0.40;;
4971;SDS011;2501;51.214;6.768;2023-12-22T01:53:49;0.60;;;0.40;;
4971;SDS011;2501;51.214;6.768;2023-12-22T01:56:18;0.60;;;0.40;;
4971;SDS011;2501;51.214;6.768;2023-12-22T01:58:47;0.60;;;0.40;;
4971;SDS011;2501;51.214;6.768;2023-12-22T02:01:15;0.60;;;0.40;;
4971;SDS011;2501;51.214;6.768;2023-12-22T02:03:44;0.60;;;0.40;;
4971;SDS011;2501;51.214;6.768;2023-12-22T02:06:15;1.40;;;0.70;;
4971;SDS011;2501;51.214;6.768;2023-12-22T02:08:44;0.60;;;0.40;;
4971;SDS011;2501;51.214;6.768;2023-12-22T02:11:14;0.60;;;0.40;;
4971;SDS011;2501;51.214;6.768;2023-12-22T02:13:44;0.60;;;0.50;;
4971;SDS011;2501;51.214;6.768;2023-12-22T02:16:18;0.60;;;0.40;;
4971;SDS011;2501;51.214;6.768;2023-12-22T02:19:01;0.60;;;0.40;;
4971;SDS011;2501;51.214;6.768;2023-12-22T02:24:36;9.60;;;2.20;;
4971;SDS011;2501;51.214;6.768;2023-12-22T02:27:05;7.28;;;2.00;;
4971;SDS011;2501;51.214;6.768;2023-12-22T02:29:41;11.73;;;2.05;;
4971;SDS011;2501;51.214;6.768;2023-12-22T02:32:16;11.88;;;1.67;;
4971;SDS011;2501;51.214;6.768;2023-12-22T02:34:51;3.60;;;1.30;;
4971;SDS011;2501;51.214;6.768;2023-12-22T02:37:21;3.90;;;0.80;;
4971;SDS011;2501;51.214;6.768;2023-12-22T02:39:54;0.60;;;0.40;;
4971;SDS011;2501;51.214;6.768;2023-12-22T02:42:23;0.60;;;0.40;;
4971;SDS011;2501;51.214;6.768;2023-12-22T02:44:55;0.60;;;0.40;;
4971;SDS011;2501;51.214;6.768;2023-12-22T02:47:24;0.60;;;0.40;;
4971;SDS011;2501;51.214;6.768;2023-12-22T02:49:53;0.50;;;0.40;;
4971;SDS011;2501;51.214;6.768;2023-12-22T02:52:21;0.50;;;0.40;;
4971;SDS011;2501;51.214;6.768;2023-12-22T02:54:50;0.50;;;0.40;;
4971;SDS011;2501;51.214;6.768;2023-12-22T02:57:21;0.50;;;0.40;;
4971;SDS011;2501;51.214;6.768;2023-12-22T02:59:49;0.60;;;0.40;;
4971;SDS011;2501;51.214;6.768;2023-12-22T03:02:18;0.60;;;0.40;;
4971;SDS011;2501;51.214;6.768;2023-12-22T03:04:46;0.60;;;0.40;;
4971;SDS011;2501;51.214;6.768;2023-12-22T03:07:15;0.60;;;0.40;;
4971;SDS011;2501;51.214;6.768;2023-12-22T03:09:43;2.40;;;0.80;;
4971;SDS011;2501;51.214;6.768;2023-12-22T03:12:12;0.60;;;0.50;;
4971;SDS011;2501;51.214;6.768;2023-12-22T03:14:43;0.60;;;0.40;;
4971;SDS011;2501;51.214;6.768;2023-12-22T03:17:11;0.60;;;0.40;;
4971;SDS011;2501;51.214;6.768;2023-12-22T03:19:40;0.60;;;0.40;;
4971;SDS011;2501;51.214;6.768;2023-12-22T03:22:08;0.60;;;0.40;;
4971;SDS011;2501;51.214;6.768;2023-12-22T03:24:36;0.60;;;0.40;;
4971;SDS011;2501;51.214;6.768;2023-12-22T03:27:05;0.60;;;0.40;;
4971;SDS011;2501;51.214;6.768;2023-12-22T03:29:33;0.60;;;0.45;;
4971;SDS011;2501;51.214;6.768;2023-12-22T03:32:04;0.60;;;0.40;;
4971;SDS011;2501;51.214;6.768;2023-12-22T03:34:33;0.60;;;0.40;;
4971;SDS011;2501;51.214;6.768;2023-12-22T03:37:02;0.60;;;0.40;;
4971;SDS011;2501;51.214;6.768;2023-12-22T03:39:30;0.60;;;0.40;;
4971;SDS011;2501;51.214;6.768;2023-12-22T03:41:59;0.60;;;0.40;;
4971;SDS011;2501;51.214;6.768;2023-12-22T03:44:27;0.60;;;0.40;;
4971;SDS011;2501;51.214;6.768;2023-12-22T03:46:56;0.60;;;0.40;;
4971;SDS011;2501;51.214;6.768;2023-12-22T03:49:27;0.60;;;0.40;;
4971;SDS011;2501;51.214;6.768;2023-12-22T03:51:55;0.60;;;0.40;;
4971;SDS011;2501;51.214;6.768;2023-12-22T03:54:24;0.60;;;0.40;;
4971;SDS011;2501;51.214;6.768;2023-12-22T03:56:52;0.60;;;0.40;;
4971;SDS011;2501;51.214;6.768;2023-12-22T03:59:20;0.60;;;0.40;;
4971;SDS011;2501;51.214;6.768;2023-12-22T04:01:52;0.60;;;0.40;;
4971;SDS011;2501;51.214;6.768;2023-12-22T04:04:18;0.60;;;0.45;;
4971;SDS011;2501;51.214;6.768;2023-12-22T04:06:49;0.60;;;0.40;;
4971;SDS011;2501;51.214;6.768;2023-12-22T04:09:18;0.60;;;0.40;;
4971;SDS011;2501;51.214;6.768;2023-12-22T04:11:46;3.20;;;0.80;;
4971;SDS011;2501;51.214;6.768;2023-12-22T04:14:15;0.60;;;0.40;;
4971;SDS011;2501;51.214;6.768;2023-12-22T04:16:43;0.60;;;0.40;;
4971;SDS011;2501;51.214;6.768;2023-12-22T04:19:12;0.60;;;0.40;;
4971;SDS011;2501;51.214;6.768;2023-12-22T04:21:40;0.60;;;0.40;;
4971;SDS011;2501;51.214;6.768;2023-12-22T04:24:11;0.60;;;0.40;;
4971;SDS011;2501;51.214;6.768;2023-12-22T04:26:40;0.60;;;0.40;;
4971;SDS011;2501;51.214;6.768;2023-12-22T04:29:08;0.80;;;0.50;;
4971;SDS011;2501;51.214;6.768;2023-12-22T04:31:36;0.60;;;0.40;;
4971;SDS011;2501;51.214;6.768;2023-12-22T04:34:05;1.20;;;0.70;;
4971;SDS011;2501;51.214;6.768;2023-12-22T04:36:34;0.60;;;0.40;;
4971;SDS011;2501;51.214;6.768;2023-12-22T04:39:03;0.70;;;0.70;;
4971;SDS011;2501;51.214;6.768;2023-12-22T04:41:34;0.60;;;0.45;;
4971;SDS011;2501;51.214;6.768;2023-12-22T04:44:06;2.70;;;1.30;;
4971;SDS011;2501;51.214;6.768;2023-12-22T04:46:34;0.70;;;0.60;;
4971;SDS011;2501;51.214;6.768;2023-12-22T04:49:02;0.60;;;0.40;;
4971;SDS011;2501;51.214;6.768;2023-12-22T04:51:31;0.60;;;0.40;;
4971;SDS011;2501;51.214;6.768;2023-12-22T04:53:59;0.60;;;0.40;;
4971;SDS011;2501;51.214;6.768;2023-12-22T04:56:28;0.60;;;0.40;;
4971;SDS011;2501;51.214;6.768;2023-12-22T04:59:00;0.60;;;0.40;;
4971;SDS011;2501;51.214;6.768;2023-12-22T05:01:28;0.90;;;0.90;;
4971;SDS011;2501;51.214;6.768;2023-12-22T05:03:56;0.80;;;0.50;;
4971;SDS011;2501;51.214;6.768;2023-12-22T05:06:25;0.60;;;0.50;;
4971;SDS011;2501;51.214;6.768;2023-12-22T05:08:54;0.60;;;0.40;;
4971;SDS011;2501;51.214;6.768;2023-12-22T05:11:22;0.63;;;0.45;;
4971;SDS011;2501;51.214;6.768;2023-12-22T05:13:51;0.60;;;0.40;;
4971;SDS011;2501;51.214;6.768;2023-12-22T05:16:22;0.60;;;0.40;;
4971;SDS011;2501;51.214;6.768;2023-12-22T05:18:50;0.60;;;0.40;;
4971;SDS011;2501;51.214;6.768;2023-12-22T05:21:19;0.60;;;0.40;;
4971;SDS011;2501;51.214;6.768;2023-12-22T05:23:47;0.60;;;0.40;;
4971;SDS011;2501;51.214;6.768;2023-12-22T05:26:18;4.00;;;0.90;;
4971;SDS011;2501;51.214;6.768;2023-12-22T05:28:47;0.90;;;0.90;;
4971;SDS011;2501;51.214;6.768;2023-12-22T05:31:15;1.20;;;0.80;;
4971;SDS011;2501;51.214;6.768;2023-12-22T05:33:47;11.63;;;2.60;;
4971;SDS011;2501;51.214;6.768;2023-12-22T05:36:15;24.20;;;3.20;;
4971;SDS011;2501;51.214;6.768;2023-12-22T05:38:44;17.63;;;2.75;;
4971;SDS011;2501;51.214;6.768;2023-12-22T05:41:13;18.33;;;3.15;;
4971;SDS011;2501;51.214;6.768;2023-12-22T05:43:41;13.80;;;2.75;;
4971;SDS011;2501;51.214;6.768;2023-12-22T05:46:10;14.98;;;2.70;;
4971;SDS011;2501;51.214;6.768;2023-12-22T05:48:38;10.68;;;3.30;;
4971;SDS011;2501;51.214;6.768;2023-12-22T05:51:09;11.38;;;2.70;;
4971;SDS011;2501;51.214;6.768;2023-12-22T05:53:38;19.13;;;3.38;;
4971;SDS011;2501;51.214;6.768;2023-12-22T05:56:16;22.83;;;3.72;;
4971;SDS011;2501;51.214;6.768;2023-12-22T05:58:45;23.50;;;3.80;;
4971;SDS011;2501;51.214;6.768;2023-12-22T06:01:14;19.67;;;3.28;;
4971;SDS011;2501;51.214;6.768;2023-12-22T06:03:43;21.40;;;3.85;;
4971;SDS011;2501;51.214;6.768;2023-12-22T06:06:14;12.68;;;2.65;;
4971;SDS011;2501;51.214;6.768;2023-12-22T06:08:43;16.70;;;3.03;;
4971;SDS011;2501;51.214;6.768;2023-12-22T06:11:12;21.42;;;3.00;;
4971;SDS011;2501;51.214;6.768;2023-12-22T06:13:40;16.00;;;2.60;;
4971;SDS011;2501;51.214;6.768;2023-12-22T06:16:10;15.83;;;3.27;;
4971;SDS011;2501;51.214;6.768;2023-12-22T06:18:41;17.57;;;3.17;;
4971;SDS011;2501;51.214;6.768;2023-12-22T06:21:09;11.98;;;3.00;;
4971;SDS011;2501;51.214;6.768;2023-12-22T06:23:41;16.42;;;3.70;;
4971;SDS011;2501;51.214;6.768;2023-12-22T06:26:09;23.20;;;3.10;;
4971;SDS011;2501;51.214;6.768;2023-12-22T06:28:38;20.60;;;2.80;;
4971;SDS011;2501;51.214;6.768;2023-12-22T06:31:07;16.17;;;3.00;;
4971;SDS011;2501;51.214;6.768;2023-12-22T06:33:36;15.00;;;3.17;;
4971;SDS011;2501;51.214;6.768;2023-12-22T06:36:04;15.03;;;2.93;;
4971;SDS011;2501;51.214;6.768;2023-12-22T06:38:33;13.77;;;3.00;;
4971;SDS011;2501;51.214;6.768;2023-12-22T06:41:04;19.25;;;3.85;;
4971;SDS011;2501;51.214;6.768;2023-12-22T06:43:33;13.77;;;3.30;;
4971;SDS011;2501;51.214;6.768;2023-12-22T06:46:01;15.25;;;3.47;;
4971;SDS011;2501;51.214;6.768;2023-12-22T06:48:30;22.37;;;3.90;;
4971;SDS011;2501;51.214;6.768;2023-12-22T06:51:02;14.90;;;2.80;;
4971;SDS011;2501;51.214;6.768;2023-12-22T06:53:31;16.25;;;2.58;;
4971;SDS011;2501;51.214;6.768;2023-12-22T06:56:00;14.32;;;2.75;;
4971;SDS011;2501;51.214;6.768;2023-12-22T06:58:32;11.00;;;2.20;;
4971;SDS011;2501;51.214;6.768;2023-12-22T07:01:00;8.90;;;2.03;;
4971;SDS011;2501;51.214;6.768;2023-12-22T07:03:28;12.48;;;2.17;;
4971;SDS011;2501;51.214;6.768;2023-12-22T07:05:57;9.63;;;2.60;;
4971;SDS011;2501;51.214;6.768;2023-12-22T07:08:25;10.90;;;2.95;;
4971;SDS011;2501;51.214;6.768;2023-12-22T07:10:54;14.77;;;2.00;;
4971;SDS011;2501;51.214;6.768;2023-12-22T07:13:22;8.73;;;2.35;;
4971;SDS011;2501;51.214;6.768;2023-12-22T07:15:54;14.43;;;3.00;;
4971;SDS011;2501;51.214;6.768;2023-12-22T07:18:23;7.45;;;2.10;;
4971;SDS011;2501;51.214;6.768;2023-12-22T07:20:55;15.25;;;2.70;;
4971;SDS011;2501;51.214;6.768;2023-12-22T07:23:24;14.98;;;3.10;;
4971;SDS011;2501;51.214;6.768;2023-12-22T07:25:52;13.82;;;3.00;;
4971;SDS011;2501;51.214;6.768;2023-12-22T07:28:21;13.13;;;3.20;;
4971;SDS011;2501;51.214;6.768;2023-12-22T07:30:49;10.70;;;2.45;;
4971;SDS011;2501;51.214;6.768;2023-12-22T07:33:20;8.83;;;2.30;;
4971;SDS011;2501;51.214;6.768;2023-12-22T07:35:49;11.00;;;2.50;;
4971;SDS011;2501;51.214;6.768;2023-12-22T07:38:17;11.57;;;2.28;;
4971;SDS011;2501;51.214;6.768;2023-12-22T07:40:46;14.85;;;2.30;;
4971;SDS011;2501;51.214;6.768;2023-12-22T07:43:14;12.87;;;3.10;;
4971;SDS011;2501;51.214;6.768;2023-12-22T07:45:43;8.38;;;1.92;;
4971;SDS011;2501;51.214;6.768;2023-12-22T07:48:13;9.90;;;2.30;;
4971;SDS011;2501;51.214;6.768;2023-12-22T07:50:44;7.97;;;1.77;;
4971;SDS011;2501;51.214;6.768;2023-12-22T07:53:13;16.15;;;2.42;;
4971;SDS011;2501;51.214;6.768;2023-12-22T07:55:41;16.30;;;2.70;;
4971;SDS011;2501;51.214;6.768;2023-12-22T07:58:12;9.85;;;2.95;;
4971;SDS011;2501;51.214;6.768;2023-12-22T08:00:42;30.23;;;4.63;;
4971;SDS011;2501;51.214;6.768;2023-12-22T08:03:11;23.60;;;3.95;;
4971;SDS011;2501;51.214;6.768;2023-12-22T08:05:39;22.70;;;4.40;;
4971;SDS011;2501;51.214;6.768;2023-12-22T08:08:10;28.00;;;5.27;;
4971;SDS011;2501;51.214;6.768;2023-12-22T08:10:40;28.92;;;4.20;;
4971;SDS011;2501;51.214;6.768;2023-12-22T08:13:09;28.92;;;4.32;;
4971;SDS011;2501;51.214;6.768;2023-12-22T08:15:37;35.17;;;4.82;;
4971;SDS011;2501;51.214;6.768;2023-12-22T08:18:06;29.55;;;4.60;;
4971;SDS011;2501;51.214;6.768;2023-12-22T08:20:35;34.55;;;5.90;;
4971;SDS011;2501;51.214;6.768;2023-12-22T08:23:03;44.47;;;5.93;;
4971;SDS011;2501;51.214;6.768;2023-12-22T08:25:32;31.48;;;5.68;;
4971;SDS011;2501;51.214;6.768;2023-12-22T08:28:00;28.97;;;5.30;;
4971;SDS011;2501;51.214;6.768;2023-12-22T08:30:29;29.42;;;6.50;;
4971;SDS011;2501;51.214;6.768;2023-12-22T08:32:58;40.33;;;7.40;;
4971;SDS011;2501;51.214;6.768;2023-12-22T08:35:27;39.75;;;10.00;;
4971;SDS011;2501;51.214;6.768;2023-12-22T08:37:55;49.92;;;12.45;;
4971;SDS011;2501;51.214;6.768;2023-12-22T08:40:24;52.77;;;10.10;;
4971;SDS011;2501;51.214;6.768;2023-12-22T08:42:55;41.72;;;9.75;;
4971;SDS011;2501;51.214;6.768;2023-12-22T08:45:25;40.05;;;7.85;;
4971;SDS011;2501;51.214;6.768;2023-12-22T08:47:54;30.48;;;6.38;;
4971;SDS011;2501;51.214;6.768;2023-12-22T08:50:23;38.95;;;7.68;;
4971;SDS011;2501;51.214;6.768;2023-12-22T08:52:52;50.28;;;8.02;;
4971;SDS011;2501;51.214;6.768;2023-12-22T08:55:20;37.20;;;7.25;;
4971;SDS011;2501;51.214;6.768;2023-12-22T08:57:49;36.75;;;7.40;;
4971;SDS011;2501;51.214;6.768;2023-12-22T09:00:20;42.20;;;7.35;;
4971;SDS011;2501;51.214;6.768;2023-12-22T09:02:49;28.50;;;6.00;;
4971;SDS011;2501;51.214;6.768;2023-12-22T09:05:18;49.55;;;6.68;;
4971;SDS011;2501;51.214;6.768;2023-12-22T09:07:47;31.60;;;6.40;;
4971;SDS011;2501;51.214;6.768;2023-12-22T09:10:16;41.10;;;7.33;;
4971;SDS011;2501;51.214;6.768;2023-12-22T09:12:44;32.80;;;6.82;;
4971;SDS011;2501;51.214;6.768;2023-12-22T09:15:13;33.25;;;6.82;;
4971;SDS011;2501;51.214;6.768;2023-12-22T09:17:44;31.73;;;7.10;;
4971;SDS011;2501;51.214;6.768;2023-12-22T09:20:13;28.80;;;6.57;;
4971;SDS011;2501;51.214;6.768;2023-12-22T09:22:41;29.90;;;5.75;;
4971;SDS011;2501;51.214;6.768;2023-12-22T09:25:10;31.30;;;6.78;;
4971;SDS011;2501;51.214;6.768;2023-12-22T09:27:38;38.90;;;6.10;;
4971;SDS011;2501;51.214;6.768;2023-12-22T09:30:07;31.40;;;5.33;;
4971;SDS011;2501;51.214;6.768;2023-12-22T09:32:36;29.87;;;5.70;;
4971;SDS011;2501;51.214;6.768;2023-12-22T09:35:07;28.45;;;5.60;;
4971;SDS011;2501;51.214;6.768;2023-12-22T09:37:35;22.87;;;4.77;;
4971;SDS011;2501;51.214;6.768;2023-12-22T09:40:04;21.40;;;5.00;;
4971;SDS011;2501;51.214;6.768;2023-12-22T09:42:35;30.00;;;6.22;;
4971;SDS011;2501;51.214;6.768;2023-12-22T09:45:09;32.80;;;5.63;;
4971;SDS011;2501;51.214;6.768;2023-12-22T09:47:40;25.63;;;5.65;;
4971;SDS011;2501;51.214;6.768;2023-12-22T09:50:13;34.55;;;5.30;;
4971;SDS011;2501;51.214;6.768;2023-12-22T09:52:43;29.17;;;6.30;;
4971;SDS011;2501;51.214;6.768;2023-12-22T09:55:12;32.75;;;6.32;;
4971;SDS011;2501;51.214;6.768;2023-12-22T09:57:42;28.67;;;5.50;;
4971;SDS011;2501;51.214;6.768;2023-12-22T10:00:11;27.70;;;5.43;;
4971;SDS011;2501;51.214;6.768;2023-12-22T10:02:41;28.13;;;5.88;;
4971;SDS011;2501;51.214;6.768;2023-12-22T10:05:13;24.27;;;4.80;;
4971;SDS011;2501;51.214;6.768;2023-12-22T10:07:44;26.20;;;4.78;;
4971;SDS011;2501;51.214;6.768;2023-12-22T10:10:13;19.63;;;5.00;;
4971;SDS011;2501;51.214;6.768;2023-12-22T10:12:44;23.58;;;4.72;;
4971;SDS011;2501;51.214;6.768;2023-12-22T10:15:13;19.77;;;4.13;;
4971;SDS011;2501;51.214;6.768;2023-12-22T10:17:44;18.25;;;4.22;;
4971;SDS011;2501;51.214;6.768;2023-12-22T10:20:15;19.02;;;4.10;;
4971;SDS011;2501;51.214;6.768;2023-12-22T10:22:44;16.17;;;3.78;;
4971;SDS011;2501;51.214;6.768;2023-12-22T10:25:14;21.95;;;4.50;;
4971;SDS011;2501;51.214;6.768;2023-12-22T10:27:43;17.20;;;3.72;;
4971;SDS011;2501;51.214;6.768;2023-12-22T10:30:12;19.95;;;4.00;;
4971;SDS011;2501;51.214;6.768;2023-12-22T10:32:42;15.68;;;3.67;;
4971;SDS011;2501;51.214;6.768;2023-12-22T10:35:11;19.70;;;4.97;;
4971;SDS011;2501;51.214;6.768;2023-12-22T10:37:42;14.27;;;3.80;;
4971;SDS011;2501;51.214;6.768;2023-12-22T10:40:11;15.40;;;3.40;;
4971;SDS011;2501;51.214;6.768;2023-12-22T10:42:40;17.08;;;3.47;;
4971;SDS011;2501;51.214;6.768;2023-12-22T10:45:09;14.23;;;3.85;;
4971;SDS011;2501;51.214;6.768;2023-12-22T10:47:38;10.43;;;3.45;;
4971;SDS011;2501;51.214;6.768;2023-12-22T10:50:07;15.40;;;3.80;;
4971;SDS011;2501;51.214;6.768;2023-12-22T10:52:42;10.40;;;3.03;;
4971;SDS011;2501;51.214;6.768;2023-12-22T10:55:17;11.15;;;3.13;;
4971;SDS011;2501;51.214;6.768;2023-12-22T10:57:46;9.48;;;3.10;;
4971;SDS011;2501;51.214;6.768;2023-12-22T11:00:15;7.10;;;2.28;;
4971;SDS011;2501;51.214;6.768;2023-12-22T11:02:45;9.18;;;2.90;;
4971;SDS011;2501;51.214;6.768;2023-12-22T11:05:15;5.63;;;2.40;;
4971;SDS011;2501;51.214;6.768;2023-12-22T11:07:49;10.73;;;2.30;;
4971;SDS011;2501;51.214;6.768;2023-12-22T11:10:22;9.35;;;2.55;;
4971;SDS011;2501;51.214;6.768;2023-12-22T11:12:51;7.80;;;2.30;;
4971;SDS011;2501;51.214;6.768;2023-12-22T11:15:21;9.43;;;2.72;;
4971;SDS011;2501;51.214;6.768;2023-12-22T11:17:52;6.88;;;2.50;;
4971;SDS011;2501;51.214;6.768;2023-12-22T11:20:23;3.35;;;1.70;;
4971;SDS011;2501;51.214;6.768;2023-12-22T11:22:55;4.60;;;2.38;;
4971;SDS011;2501;51.214;6.768;2023-12-22T11:25:25;6.00;;;2.10;;
4971;SDS011;2501;51.214;6.768;2023-12-22T11:27:54;5.60;;;1.90;;
4971;SDS011;2501;51.214;6.768;2023-12-22T11:30:24;9.10;;;2.60;;
4971;SDS011;2501;51.214;6.768;2023-12-22T11:32:53;6.57;;;2.10;;
4971;SDS011;2501;51.214;6.768;2023-12-22T11:35:22;6.88;;;2.00;;
4971;SDS011;2501;51.214;6.768;2023-12-22T11:37:51;5.10;;;2.20;;
4971;SDS011;2501;51.214;6.768;2023-12-22T11:40:24;6.18;;;1.75;;
4971;SDS011;2501;51.214;6.768;2023-12-22T11:42:52;6.22;;;1.70;;
4971;SDS011;2501;51.214;6.768;2023-12-22T11:45:21;8.10;;;1.90;;
4971;SDS011;2501;51.214;6.768;2023-12-22T11:47:50;6.90;;;2.05;;
4971;SDS011;2501;51.214;6.768;2023-12-22T11:50:27;5.05;;;2.35;;
4971;SDS011;2501;51.214;6.768;2023-12-22T11:52:57;2.03;;;1.40;;
4971;SDS011;2501;51.214;6.768;2023-12-22T11:58:34;6.70;;;1.48;;
4971;SDS011;2501;51.214;6.768;2023-12-22T12:01:04;4.47;;;2.20;;
4971;SDS011;2501;51.214;6.768;2023-12-22T12:03:35;4.03;;;1.60;;
4971;SDS011;2501;51.214;6.768;2023-12-22T12:09:03;3.40;;;1.40;;
4971;SDS011;2501;51.214;6.768;2023-12-22T12:14:43;5.93;;;1.30;;
4971;SDS011;2501;51.214;6.768;2023-12-22T12:17:13;5.15;;;1.60;;
4971;SDS011;2501;51.214;6.768;2023-12-22T12:19:44;8.27;;;1.83;;
4971;SDS011;2501;51.214;6.768;2023-12-22T12:22:16;4.53;;;1.70;;
4971;SDS011;2501;51.214;6.768;2023-12-22T12:24:49;3.40;;;1.33;;
4971;SDS011;2501;51.214;6.768;2023-12-22T12:27:18;7.72;;;1.70;;
4971;SDS011;2501;51.214;6.768;2023-12-22T12:29:49;7.00;;;1.10;;
4971;SDS011;2501;51.214;6.768;2023-12-22T12:32:18;5.90;;;1.20;;
4971;SDS011;2501;51.214;6.768;2023-12-22T12:34:51;4.70;;;1.65;;
4971;SDS011;2501;51.214;6.768;2023-12-22T12:37:21;5.22;;;1.40;;
4971;SDS011;2501;51.214;6.768;2023-12-22T12:39:49;3.78;;;1.10;;
4971;SDS011;2501;51.214;6.768;2023-12-22T12:42:24;4.90;;;2.00;;
4971;SDS011;2501;51.214;6.768;2023-12-22T12:44:59;4.93;;;1.50;;
4971;SDS011;2501;51.214;6.768;2023-12-22T12:47:28;4.32;;;1.40;;
4971;SDS011;2501;51.214;6.768;2023-12-22T12:49:56;5.78;;;1.60;;
4971;SDS011;2501;51.214;6.768;2023-12-22T12:52:26;6.95;;;2.80;;
4971;SDS011;2501;51.214;6.768;2023-12-22T12:54:55;2.60;;;1.30;;
4971;SDS011;2501;51.214;6.768;2023-12-22T12:57:25;4.95;;;1.70;;
4971;SDS011;2501;51.214;6.768;2023-12-22T12:59:54;6.32;;;1.70;;
4971;SDS011;2501;51.214;6.768;2023-12-22T13:02:25;3.33;;;1.50;;
4971;SDS011;2501;51.214;6.768;2023-12-22T13:04:54;4.63;;;1.50;;
4971;SDS011;2501;51.214;6.768;2023-12-22T13:07:25;3.35;;;1.10;;
4971;SDS011;2501;51.214;6.768;2023-12-22T13:09:54;5.15;;;1.17;;
4971;SDS011;2501;51.214;6.768;2023-12-22T13:12:24;2.53;;;1.30;;
4971;SDS011;2501;51.214;6.768;2023-12-22T13:14:54;6.10;;;1.10;;
4971;SDS011;2501;51.214;6.768;2023-12-22T13:17:25;3.78;;;1.60;;
4971;SDS011;2501;51.214;6.768;2023-12-22T13:19:53;3.90;;;1.80;;
4971;SDS011;2501;51.214;6.768;2023-12-22T13:22:22;4.70;;;1.60;;
4971;SDS011;2501;51.214;6.768;2023-12-22T13:24:56;13.07;;;1.70;;
4971;SDS011;2501;51.214;6.768;2023-12-22T13:27:25;5.60;;;1.33;;
4971;SDS011;2501;51.214;6.768;2023-12-22T13:29:54;2.83;;;1.10;;
4971;SDS011;2501;51.214;6.768;2023-12-22T13:32:25;3.95;;;1.48;;
4971;SDS011;2501;51.214;6.768;2023-12-22T13:34:54;4.18;;;1.55;;
4971;SDS011;2501;51.214;6.768;2023-12-22T13:37:22;4.68;;;1.50;;
4971;SDS011;2501;51.214;6.768;2023-12-22T13:39:55;7.05;;;1.60;;
4971;SDS011;2501;51.214;6.768;2023-12-22T13:42:25;7.65;;;1.38;;
4971;SDS011;2501;51.214;6.768;2023-12-22T13:44:53;5.90;;;1.50;;
4971;SDS011;2501;51.214;6.768;2023-12-22T13:47:25;3.47;;;1.40;;
4971;SDS011;2501;51.214;6.768;2023-12-22T13:49:53;5.25;;;1.48;;
4971;SDS011;2501;51.214;6.768;2023-12-22T13:52:25;7.03;;;1.58;;
4971;SDS011;2501;51.214;6.768;2023-12-22T13:55:00;8.02;;;2.20;;
4971;SDS011;2501;51.214;6.768;2023-12-22T13:57:28;3.83;;;1.63;;
4971;SDS011;2501;51.214;6.768;2023-12-22T13:59:57;4.20;;;1.55;;
4971;SDS011;2501;51.214;6.768;2023-12-22T14:02:28;3.30;;;1.20;;
4971;SDS011;2501;51.214;6.768;2023-12-22T14:04:57;5.05;;;1.70;;
4971;SDS011;2501;51.214;6.768;2023-12-22T14:07:25;1.93;;;1.10;;
4971;SDS011;2501;51.214;6.768;2023-12-22T14:09:54;5.53;;;1.20;;
4971;SDS011;2501;51.214;6.768;2023-12-22T14:12:22;4.30;;;1.50;;
4971;SDS011;2501;51.214;6.768;2023-12-22T14:14:51;2.40;;;1.20;;
4971;SDS011;2501;51.214;6.768;2023-12-22T14:17:19;3.80;;;1.20;;
4971;SDS011;2501;51.214;6.768;2023-12-22T14:19:50;8.83;;;1.37;;
4971;SDS011;2501;51.214;6.768;2023-12-22T14:22:19;6.45;;;1.50;;
4971;SDS011;2501;51.214;6.768;2023-12-22T14:24:47;8.70;;;1.43;;
4971;SDS011;2501;51.214;6.768;2023-12-22T14:27:16;5.10;;;1.40;;
4971;SDS011;2501;51.214;6.768;2023-12-22T14:29:44;6.30;;;1.73;;
4971;SDS011;2501;51.214;6.768;2023-12-22T14:32:13;7.00;;;1.30;;
4971;SDS011;2501;51.214;6.768;2023-12-22T14:34:44;4.80;;;1.40;;
4971;SDS011;2501;51.214;6.768;2023-12-22T14:37:15;4.07;;;1.33;;
4971;SDS011;2501;51.214;6.768;2023-12-22T14:39:45;5.57;;;1.40;;
4971;SDS011;2501;51.214;6.768;2023-12-22T14:42:13;6.20;;;1.52;;
4971;SDS011;2501;51.214;6.768;2023-12-22T14:44:43;8.70;;;1.83;;
4971;SDS011;2501;51.214;6.768;2023-12-22T14:47:11;5.07;;;1.38;;
4971;SDS011;2501;51.214;6.768;2023-12-22T14:49:40;8.13;;;1.58;;
4971;SDS011;2501;51.214;6.768;2023-12-22T14:52:09;9.20;;;1.75;;
4971;SDS011;2501;51.214;6.768;2023-12-22T14:54:40;6.15;;;1.90;;
4971;SDS011;2501;51.214;6.768;2023-12-22T14:57:20;5.40;;;1.30;;
4971;SDS011;2501;51.214;6.768;2023-12-22T14:59:50;2.57;;;1.13;;
4971;SDS011;2501;51.214;6.768;2023-12-22T15:02:18;5.53;;;1.60;;
4971;SDS011;2501;51.214;6.768;2023-12-22T15:04:47;4.57;;;1.15;;
4971;SDS011;2501;51.214;6.768;2023-12-22T15:07:15;10.15;;;1.73;;
4971;SDS011;2501;51.214;6.768;2023-12-22T15:09:47;5.38;;;1.45;;
4971;SDS011;2501;51.214;6.768;2023-12-22T15:12:15;6.70;;;1.40;;
4971;SDS011;2501;51.214;6.768;2023-12-22T15:14:44;5.53;;;1.50;;
4971;SDS011;2501;51.214;6.768;2023-12-22T15:17:13;7.00;;;1.80;;
4971;SDS011;2501;51.214;6.768;2023-12-22T15:19:43;4.03;;;1.13;;
4971;SDS011;2501;51.214;6.768;2023-12-22T15:22:11;4.43;;;1.30;;
4971;SDS011;2501;51.214;6.768;2023-12-22T15:24:41;5.20;;;1.20;;
4971;SDS011;2501;51.214;6.768;2023-12-22T15:27:12;2.47;;;1.50;;
4971;SDS011;2501;51.214;6.768;2023-12-22T15:29:41;9.07;;;1.65;;
4971;SDS011;2501;51.214;6.768;2023-12-22T15:32:13;7.88;;;1.40;;
4971;SDS011;2501;51.214;6.768;2023-12-22T15:34:42;7.35;;;1.70;;
4971;SDS011;2501;51.214;6.768;2023-12-22T15:37:13;4.93;;;1.70;;